Paw Paw, Illinois
Current Conditions -  °F | °C
As of 6:55 PM on Monday 24 Nov 2014 (Local Time) from KRPJ Reporting Station
Overcast Overcast  
Wind Chill: -12°   Ceiling: 1500
Heat Index: -4°   Visibility: 7mi
Dew Point: -6°   Wind: 21mph
Humidity: 87%   Direction: 260°W
Pressure: 29.71"   Gusts: 33mph
Location:  41.69°N, 88.98°W
Report Text: KRPJ 250055Z AUTO 26018G29KT 7SM OVC015 M04/M06 A2971 RMK AO2 T10421060
Loading
Personal Weather Stations






























Interactive Weather Map New forecast layout! Learn more

10-Day Weather Forecast

Advertisements
Track Severe Weather on mobile